createdAt,value
2018-05-31T00:00:06.783Z,89.72
2018-05-31T00:02:34.452Z,89.79
2018-05-31T00:05:02.090Z,89.60
2018-05-31T00:07:29.674Z,90.11
2018-05-31T00:09:57.221Z,89.97
2018-05-31T00:12:24.868Z,90.02
2018-05-31T00:14:52.419Z,90.36
2018-05-31T00:17:20.018Z,91.69
2018-05-31T00:19:47.601Z,91.91
2018-05-31T00:22:15.210Z,91.45
2018-05-31T00:24:42.815Z,91.72
2018-05-31T00:27:10.363Z,92.85
2018-05-31T00:29:37.883Z,92.57
2018-05-31T00:32:05.405Z,92.05
2018-05-31T00:34:33.190Z,92.12
2018-05-31T00:37:00.748Z,92.49
2018-05-31T00:39:28.307Z,93.05
2018-05-31T00:41:55.876Z,93.03
2018-05-31T00:44:23.423Z,93.10
2018-05-31T00:46:50.982Z,92.63
2018-05-31T00:49:18.562Z,92.09
2018-05-31T00:51:46.217Z,91.83
2018-05-31T00:54:13.775Z,92.57
2018-05-31T00:56:41.349Z,93.06
2018-05-31T00:59:08.895Z,94.14
2018-05-31T01:01:36.476Z,93.74
2018-05-31T01:04:04.118Z,93.75
2018-05-31T01:06:31.684Z,93.86
2018-05-31T01:08:59.236Z,93.80
2018-05-31T01:11:26.817Z,93.83
2018-05-31T01:13:54.391Z,93.69
2018-05-31T01:16:21.994Z,93.83
2018-05-31T01:18:50.423Z,93.38
2018-05-31T01:21:17.936Z,93.66
2018-05-31T01:23:45.443Z,94.09
2018-05-31T01:26:12.986Z,94.07
2018-05-31T01:28:40.517Z,93.83
2018-05-31T01:31:08.083Z,94.62
2018-05-31T01:33:35.599Z,94.50
2018-05-31T01:36:03.131Z,94.50
2018-05-31T01:38:34.012Z,94.61
2018-05-31T01:41:01.569Z,94.89
2018-05-31T01:43:29.090Z,95.05
2018-05-31T01:45:56.624Z,95.22
2018-05-31T01:48:24.149Z,94.75
2018-05-31T01:50:51.655Z,94.55
2018-05-31T01:53:19.186Z,94.52
2018-05-31T01:55:46.730Z,94.56
2018-05-31T01:58:14.267Z,94.72
2018-05-31T02:00:41.801Z,94.87
2018-05-31T02:03:10.442Z,95.09
2018-05-31T02:05:37.997Z,94.96
2018-05-31T02:08:06.090Z,95.03
2018-05-31T02:10:33.617Z,95.12
2018-05-31T02:13:01.153Z,95.15
2018-05-31T02:15:28.717Z,95.10
2018-05-31T02:17:56.272Z,95.06
2018-05-31T02:20:23.810Z,95.11
2018-05-31T02:22:51.365Z,95.03
2018-05-31T02:25:18.931Z,95.61
2018-05-31T02:27:46.454Z,95.53
2018-05-31T02:30:13.979Z,95.51
2018-05-31T02:32:41.526Z,95.89
2018-05-31T02:35:09.051Z,96.00
2018-05-31T02:37:36.592Z,95.69
2018-05-31T02:40:04.110Z,95.54
2018-05-31T02:42:31.631Z,95.63
2018-05-31T02:44:59.173Z,95.56
2018-05-31T02:47:26.744Z,95.68
2018-05-31T02:49:54.309Z,95.81
2018-05-31T02:52:22.241Z,95.75
2018-05-31T02:54:49.810Z,95.81
2018-05-31T02:57:17.347Z,95.77
2018-05-31T02:59:44.899Z,95.68
2018-05-31T03:02:12.407Z,95.63
2018-05-31T03:04:39.934Z,95.61
2018-05-31T03:07:07.479Z,95.27
2018-05-31T03:09:35.070Z,95.20
2018-05-31T03:12:02.658Z,95.00
2018-05-31T03:14:30.204Z,95.19
2018-05-31T03:16:57.737Z,95.59
2018-05-31T03:19:25.295Z,95.48
2018-05-31T03:21:52.803Z,95.31
2018-05-31T03:24:20.349Z,94.67
2018-05-31T03:26:47.895Z,95.70
2018-05-31T03:29:15.474Z,95.58
2018-05-31T03:31:43.046Z,95.40
2018-05-31T03:34:10.599Z,94.33
2018-05-31T03:36:38.184Z,94.18
2018-05-31T03:39:05.737Z,94.30
2018-05-31T03:41:33.242Z,94.07
2018-05-31T03:44:00.747Z,94.74
2018-05-31T03:46:28.269Z,94.41
2018-05-31T03:48:55.788Z,93.32
2018-05-31T03:51:23.330Z,93.95
2018-05-31T03:53:50.840Z,94.17
2018-05-31T03:56:18.355Z,93.26
2018-05-31T03:58:45.871Z,93.60
2018-05-31T04:01:13.475Z,93.41
2018-05-31T04:03:40.989Z,93.10
2018-05-31T04:06:08.531Z,93.78
2018-05-31T04:08:36.092Z,92.92
2018-05-31T04:11:03.611Z,92.61
2018-05-31T04:13:31.164Z,91.55
2018-05-31T04:15:58.682Z,91.50
2018-05-31T04:18:26.446Z,91.53
2018-05-31T04:20:53.981Z,92.16
2018-05-31T04:23:21.509Z,91.48
2018-05-31T04:25:49.053Z,92.13
2018-05-31T04:28:16.593Z,91.52
2018-05-31T04:30:44.289Z,90.14
2018-05-31T04:33:11.810Z,89.49
2018-05-31T04:35:39.375Z,90.09
2018-05-31T04:38:06.895Z,89.44
2018-05-31T04:40:34.411Z,88.81
2018-05-31T04:43:01.938Z,87.80
2018-05-31T04:45:29.450Z,87.46
2018-05-31T04:47:57.008Z,86.94
2018-05-31T04:50:24.555Z,86.23
2018-05-31T04:52:52.067Z,86.04
2018-05-31T04:55:19.617Z,85.79
2018-05-31T04:57:47.149Z,85.79
2018-05-31T05:00:14.690Z,85.82
2018-05-31T05:02:42.207Z,85.47
2018-05-31T05:05:09.933Z,85.41
2018-05-31T05:07:37.477Z,85.04
2018-05-31T05:10:04.984Z,85.71
2018-05-31T05:12:32.565Z,85.48
2018-05-31T05:15:00.059Z,85.07
2018-05-31T05:17:27.579Z,84.81
2018-05-31T05:19:55.145Z,83.88
2018-05-31T05:22:22.701Z,84.23
2018-05-31T05:24:50.262Z,84.56
2018-05-31T05:27:17.799Z,84.15
2018-05-31T05:29:45.322Z,85.26
2018-05-31T05:32:12.854Z,83.77
2018-05-31T05:34:40.393Z,83.72
2018-05-31T05:37:07.918Z,84.37
2018-05-31T05:39:35.477Z,82.89
2018-05-31T05:42:03.008Z,78.30
2018-05-31T05:44:30.537Z,76.26
2018-05-31T05:46:58.074Z,75.26
2018-05-31T05:49:26.567Z,73.34
2018-05-31T05:51:54.091Z,73.03
2018-05-31T05:54:21.638Z,73.13
2018-05-31T05:56:49.169Z,72.80
2018-05-31T05:59:16.756Z,72.71
2018-05-31T06:01:44.270Z,72.52
2018-05-31T06:04:11.815Z,71.76
2018-05-31T06:06:39.515Z,70.10
2018-05-31T06:09:07.051Z,66.68
2018-05-31T06:11:34.572Z,68.30
2018-05-31T06:14:02.098Z,67.88
2018-05-31T06:16:29.606Z,67.30
2018-05-31T06:18:57.625Z,68.57
2018-05-31T06:21:24.679Z,68.24
2018-05-31T06:23:52.201Z,68.90
2018-05-31T06:26:19.802Z,68.40
2018-05-31T06:28:47.234Z,68.98
2018-05-31T06:31:14.761Z,67.98
2018-05-31T06:33:42.281Z,68.45
2018-05-31T06:36:09.791Z,69.09
2018-05-31T06:38:37.318Z,69.78
2018-05-31T06:41:04.842Z,68.67
2018-05-31T06:43:32.385Z,68.86
2018-05-31T06:45:59.915Z,68.85
2018-05-31T06:48:27.429Z,68.94
2018-05-31T06:50:54.960Z,69.31
2018-05-31T06:53:22.483Z,68.33
2018-05-31T06:55:50.002Z,67.28
2018-05-31T06:58:17.527Z,68.02
2018-05-31T07:00:45.085Z,68.57
2018-05-31T07:03:12.613Z,67.54
2018-05-31T07:05:40.357Z,67.90
2018-05-31T07:08:07.905Z,68.47
2018-05-31T07:10:35.417Z,69.79
2018-05-31T07:13:02.933Z,69.51
2018-05-31T07:15:30.464Z,69.25
2018-05-31T07:17:57.948Z,70.35
2018-05-31T07:20:25.520Z,69.58
2018-05-31T07:22:53.053Z,69.70
2018-05-31T07:25:20.566Z,70.03
2018-05-31T07:27:48.067Z,67.93
2018-05-31T07:30:15.570Z,69.37
2018-05-31T07:32:43.290Z,68.49
2018-05-31T07:35:10.815Z,68.70
2018-05-31T07:37:38.325Z,66.43
2018-05-31T07:40:05.878Z,65.71
2018-05-31T07:42:33.420Z,65.75
2018-05-31T07:45:00.926Z,66.20
2018-05-31T07:47:28.436Z,65.91
2018-05-31T07:49:56.107Z,67.20
2018-05-31T07:52:23.602Z,66.80
2018-05-31T07:54:51.126Z,66.30
2018-05-31T07:57:18.666Z,65.17
2018-05-31T07:59:46.159Z,64.75
2018-05-31T08:02:13.675Z,65.15
2018-05-31T08:04:41.174Z,66.65
2018-05-31T08:07:08.692Z,64.12
2018-05-31T08:09:36.199Z,64.81
2018-05-31T08:12:03.713Z,65.30
2018-05-31T08:14:31.297Z,65.43
2018-05-31T08:16:58.832Z,66.29
2018-05-31T08:19:26.350Z,66.31
2018-05-31T08:21:53.875Z,65.74
2018-05-31T08:24:21.400Z,66.19
2018-05-31T08:26:48.911Z,63.27
2018-05-31T08:29:16.431Z,63.58
2018-05-31T08:31:44.002Z,64.97
2018-05-31T08:34:11.649Z,63.99
2018-05-31T08:36:39.142Z,64.66
2018-05-31T08:39:06.653Z,65.64
2018-05-31T08:41:34.159Z,66.39
2018-05-31T08:44:01.731Z,64.84
2018-05-31T08:46:29.229Z,66.14
2018-05-31T08:48:56.727Z,66.16
2018-05-31T08:51:24.285Z,65.81
2018-05-31T08:53:51.806Z,66.98
2018-05-31T08:56:19.347Z,67.80
2018-05-31T08:58:46.834Z,67.03
2018-05-31T09:01:14.329Z,65.70
2018-05-31T09:03:41.822Z,65.53
2018-05-31T09:06:09.338Z,65.62
2018-05-31T09:08:36.857Z,63.61
2018-05-31T09:11:04.369Z,61.88
2018-05-31T09:13:31.989Z,62.88
2018-05-31T09:15:59.494Z,62.79
2018-05-31T09:18:27.021Z,63.31
2018-05-31T09:20:54.515Z,63.44
2018-05-31T09:23:22.041Z,64.08
2018-05-31T09:25:49.554Z,63.36
2018-05-31T09:28:17.098Z,63.28
2018-05-31T09:30:44.609Z,62.31
2018-05-31T09:33:12.127Z,63.37
2018-05-31T09:35:39.627Z,64.76
2018-05-31T09:38:07.119Z,64.94
2018-05-31T09:40:34.636Z,62.74
2018-05-31T09:43:02.166Z,63.13
2018-05-31T09:45:29.670Z,62.09
2018-05-31T09:47:57.175Z,62.48
2018-05-31T09:50:24.690Z,62.41
2018-05-31T09:52:52.179Z,61.64
2018-05-31T09:55:19.700Z,61.87
2018-05-31T09:57:47.191Z,64.27
2018-05-31T10:00:16.655Z,62.87
2018-05-31T10:02:44.155Z,60.72
2018-05-31T10:05:11.719Z,60.95
2018-05-31T10:07:39.223Z,60.91
2018-05-31T10:10:06.735Z,61.69
2018-05-31T10:12:34.236Z,59.65
2018-05-31T10:15:01.897Z,61.48
2018-05-31T10:17:29.412Z,61.64
2018-05-31T10:19:56.983Z,61.54
2018-05-31T10:22:24.526Z,60.77
2018-05-31T10:24:52.028Z,62.10
2018-05-31T10:27:19.511Z,61.04
2018-05-31T10:29:47.022Z,61.85
2018-05-31T10:32:14.524Z,60.83
2018-05-31T10:34:42.040Z,61.35
2018-05-31T10:37:09.570Z,61.62
2018-05-31T10:39:37.075Z,59.93
2018-05-31T10:42:04.592Z,62.48
2018-05-31T10:44:32.130Z,61.56
2018-05-31T10:46:59.627Z,61.57
2018-05-31T10:49:27.152Z,60.13
2018-05-31T10:51:54.662Z,59.85
2018-05-31T10:54:22.170Z,60.66
2018-05-31T10:56:49.673Z,61.02
2018-05-31T10:59:17.266Z,60.67
2018-05-31T11:01:44.847Z,58.54
2018-05-31T11:04:12.360Z,59.54
2018-05-31T11:06:39.874Z,58.82
2018-05-31T11:09:07.399Z,59.51
2018-05-31T11:11:34.916Z,58.25
2018-05-31T11:14:02.439Z,59.15
2018-05-31T11:16:29.985Z,59.02
2018-05-31T11:18:57.531Z,59.96
2018-05-31T11:21:25.053Z,59.33
2018-05-31T11:23:52.564Z,58.71
2018-05-31T11:26:20.153Z,59.19
2018-05-31T11:28:47.659Z,59.63
2018-05-31T11:31:15.152Z,59.79
2018-05-31T11:33:42.681Z,60.95
2018-05-31T11:36:10.190Z,59.98
2018-05-31T11:38:37.737Z,60.15
2018-05-31T11:41:05.247Z,60.30
2018-05-31T11:43:32.757Z,60.88
2018-05-31T11:46:00.282Z,61.54
2018-05-31T11:48:27.797Z,60.99
2018-05-31T11:50:55.303Z,60.91
2018-05-31T11:53:22.827Z,61.71
2018-05-31T11:55:50.523Z,61.58
2018-05-31T11:58:18.050Z,62.12
2018-05-31T12:00:45.561Z,62.52
2018-05-31T12:03:13.062Z,63.36
2018-05-31T12:05:40.567Z,63.44
2018-05-31T12:08:08.123Z,63.83
2018-05-31T12:10:35.626Z,63.88
2018-05-31T12:13:03.135Z,63.81
2018-05-31T12:15:30.655Z,63.73
2018-05-31T12:17:58.159Z,63.86
2018-05-31T12:20:25.658Z,64.28
2018-05-31T12:22:53.197Z,65.69
2018-05-31T12:25:20.715Z,65.71
2018-05-31T12:27:48.330Z,65.95
2018-05-31T12:30:15.863Z,65.09
2018-05-31T12:32:43.355Z,65.13
2018-05-31T12:35:10.873Z,65.24
2018-05-31T12:37:38.419Z,65.46
2018-05-31T12:40:05.928Z,65.81
2018-05-31T12:42:33.450Z,66.53
2018-05-31T12:45:00.993Z,66.11
2018-05-31T12:47:28.521Z,66.63
2018-05-31T12:49:56.031Z,66.77
2018-05-31T12:52:23.520Z,66.82
2018-05-31T12:54:51.012Z,67.11
2018-05-31T12:57:18.551Z,67.94
2018-05-31T12:59:46.115Z,66.97
2018-05-31T13:02:13.607Z,67.38
2018-05-31T13:04:41.130Z,66.92
2018-05-31T13:07:08.653Z,67.05
2018-05-31T13:09:36.158Z,67.52
2018-05-31T13:12:03.655Z,67.29
2018-05-31T13:14:31.171Z,65.40
2018-05-31T13:16:58.685Z,65.94
2018-05-31T13:19:26.194Z,65.85
2018-05-31T13:21:53.711Z,66.56
2018-05-31T13:24:21.211Z,65.88
2018-05-31T13:26:48.765Z,65.72
2018-05-31T13:29:16.536Z,65.67
2018-05-31T13:31:44.191Z,65.57
2018-05-31T13:34:11.812Z,65.81
2018-05-31T13:36:39.826Z,64.45
2018-05-31T13:39:07.691Z,64.78
2018-05-31T13:41:35.255Z,65.45
2018-05-31T13:44:02.877Z,65.30
2018-05-31T13:46:30.631Z,64.21
2018-05-31T13:48:58.165Z,64.82
2018-05-31T13:51:25.708Z,63.98
2018-05-31T13:53:53.315Z,63.19
2018-05-31T13:56:20.836Z,63.39
2018-05-31T13:58:48.365Z,61.67
2018-05-31T14:01:15.889Z,60.78
2018-05-31T14:03:43.844Z,60.47
2018-05-31T14:06:11.395Z,59.14
2018-05-31T14:08:38.940Z,58.88
2018-05-31T14:11:06.470Z,56.78
2018-05-31T14:13:34.232Z,56.25
2018-05-31T14:16:01.735Z,56.29
2018-05-31T14:18:29.268Z,56.66
2018-05-31T14:20:57.389Z,57.35
2018-05-31T14:23:24.927Z,57.94
2018-05-31T14:25:52.501Z,57.58
2018-05-31T14:28:20.046Z,57.40
2018-05-31T14:30:47.979Z,57.99
2018-05-31T14:33:15.935Z,57.94
2018-05-31T14:35:43.474Z,57.93
2018-05-31T14:38:11.032Z,57.44
2018-05-31T14:40:38.749Z,57.06
2018-05-31T14:43:06.554Z,56.60
2018-05-31T14:45:34.342Z,57.47
2018-05-31T14:48:01.905Z,56.58
2018-05-31T14:50:29.567Z,56.49
2018-05-31T14:52:57.120Z,56.22
2018-05-31T14:55:24.655Z,55.70
2018-05-31T14:57:52.554Z,56.28
2018-05-31T15:00:21.848Z,56.51
2018-05-31T15:02:49.614Z,54.47
2018-05-31T15:05:17.271Z,53.79
2018-05-31T15:07:44.831Z,54.07
2018-05-31T15:10:12.395Z,49.45
2018-05-31T15:12:40.348Z,49.40
2018-05-31T15:15:08.383Z,51.09
2018-05-31T15:17:35.968Z,49.39
2018-05-31T15:20:03.621Z,50.56
2018-05-31T15:22:31.668Z,49.81
2018-05-31T15:24:59.521Z,50.99
2018-05-31T15:27:27.697Z,50.49
2018-05-31T15:29:55.385Z,50.34
2018-05-31T15:32:23.358Z,50.55
2018-05-31T15:34:51.291Z,51.53
2018-05-31T15:37:19.310Z,50.13
2018-05-31T15:39:46.961Z,50.89
2018-05-31T15:42:14.481Z,48.89
2018-05-31T15:44:43.024Z,49.99
2018-05-31T15:47:10.874Z,50.73
2018-05-31T15:49:38.722Z,50.24
2018-05-31T15:52:08.685Z,49.93
2018-05-31T15:54:36.247Z,48.01
2018-05-31T15:57:03.764Z,48.21
2018-05-31T15:59:31.304Z,49.28
2018-05-31T16:01:59.080Z,49.54
2018-05-31T16:04:26.657Z,49.15
2018-05-31T16:06:54.187Z,50.65
2018-05-31T16:09:21.710Z,49.25
2018-05-31T16:11:49.862Z,50.48
2018-05-31T16:14:17.415Z,50.58
2018-05-31T16:16:44.984Z,50.91
2018-05-31T16:19:12.722Z,51.39
2018-05-31T16:21:40.237Z,51.13
2018-05-31T16:24:07.776Z,51.26
2018-05-31T16:26:35.417Z,51.63
2018-05-31T16:29:03.000Z,51.35
2018-05-31T16:31:30.927Z,51.23
2018-05-31T16:33:58.454Z,52.22
2018-05-31T16:36:25.999Z,52.38
2018-05-31T16:38:53.547Z,52.76
2018-05-31T16:41:21.070Z,52.19
2018-05-31T16:43:48.575Z,52.36
2018-05-31T16:46:16.123Z,52.21
2018-05-31T16:48:43.753Z,51.67
2018-05-31T16:51:11.307Z,51.52
2018-05-31T16:53:38.820Z,51.60
2018-05-31T16:56:06.398Z,51.80
2018-05-31T16:58:33.959Z,51.95
2018-05-31T17:01:01.475Z,52.18
2018-05-31T17:03:29.169Z,52.46
2018-05-31T17:05:56.886Z,52.31
2018-05-31T17:08:24.389Z,52.35
2018-05-31T17:10:51.945Z,52.54
2018-05-31T17:13:19.590Z,52.66
2018-05-31T17:15:47.214Z,53.00
2018-05-31T17:18:14.804Z,53.36
2018-05-31T17:20:42.362Z,52.48
2018-05-31T17:23:10.030Z,53.27
2018-05-31T17:25:37.627Z,53.55
2018-05-31T17:28:05.532Z,54.08
2018-05-31T17:30:33.047Z,53.40
2018-05-31T17:33:01.063Z,54.26
2018-05-31T17:35:29.685Z,54.18
2018-05-31T17:37:57.255Z,54.06
2018-05-31T17:40:24.894Z,54.34
2018-05-31T17:42:52.411Z,54.43
2018-05-31T17:45:20.106Z,55.09
2018-05-31T17:47:47.692Z,55.19
2018-05-31T17:50:15.391Z,55.68
2018-05-31T17:52:43.401Z,56.66
2018-05-31T17:55:10.982Z,57.68
2018-05-31T17:57:38.525Z,58.28
2018-05-31T18:00:06.752Z,58.70
2018-05-31T18:02:34.773Z,58.58
2018-05-31T18:05:02.346Z,58.06
2018-05-31T18:07:30.201Z,57.52
2018-05-31T18:09:58.318Z,57.72
2018-05-31T18:12:26.064Z,57.82
2018-05-31T18:14:53.991Z,57.79
2018-05-31T18:17:21.510Z,57.75
2018-05-31T18:19:49.288Z,57.13
2018-05-31T18:22:16.863Z,57.70
2018-05-31T18:24:44.415Z,58.03
2018-05-31T18:27:12.280Z,58.32
2018-05-31T18:29:40.018Z,58.31
2018-05-31T18:32:07.575Z,58.58
2018-05-31T18:34:35.112Z,58.72
2018-05-31T18:37:02.656Z,58.85
2018-05-31T18:39:30.172Z,58.43
2018-05-31T18:41:58.000Z,58.70
2018-05-31T18:44:25.534Z,58.80
2018-05-31T18:46:53.119Z,59.18
2018-05-31T18:49:21.102Z,59.23
2018-05-31T18:51:49.035Z,59.60
2018-05-31T18:54:16.581Z,59.78
2018-05-31T18:56:44.158Z,60.11
2018-05-31T18:59:11.909Z,60.03
2018-05-31T19:01:39.774Z,60.24
2018-05-31T19:04:07.259Z,60.58
2018-05-31T19:06:34.840Z,60.68
2018-05-31T19:09:02.705Z,60.75
2018-05-31T19:11:30.222Z,61.26
2018-05-31T19:13:58.674Z,60.99
2018-05-31T19:16:26.170Z,61.51
2018-05-31T19:18:59.115Z,61.98
2018-05-31T19:21:26.727Z,61.79
2018-05-31T19:23:54.513Z,62.15
2018-05-31T19:26:22.289Z,62.42
2018-05-31T19:28:49.805Z,62.51
2018-05-31T19:31:17.348Z,62.65
2018-05-31T19:33:44.859Z,62.71
2018-05-31T19:36:17.905Z,62.90
2018-05-31T19:38:45.918Z,63.16
2018-05-31T19:41:13.964Z,63.61
2018-05-31T20:19:03.799Z,68.25
2018-05-31T20:21:31.309Z,69.13
2018-05-31T20:23:58.807Z,70.19
2018-05-31T20:26:26.358Z,70.60
2018-05-31T20:28:53.855Z,71.18
2018-05-31T20:31:21.396Z,70.71
2018-05-31T20:33:48.910Z,70.84
2018-05-31T20:36:16.396Z,72.14
2018-05-31T20:38:45.899Z,72.63
2018-05-31T20:41:13.934Z,72.99
2018-05-31T20:43:41.439Z,73.60
2018-05-31T20:46:09.358Z,74.62
2018-05-31T20:48:36.851Z,75.37
2018-05-31T20:51:04.391Z,75.63
2018-05-31T20:53:32.422Z,75.79
2018-05-31T20:55:59.955Z,76.00
2018-05-31T20:58:27.457Z,76.31
2018-05-31T21:00:54.959Z,76.95
2018-05-31T21:03:32.118Z,77.23
2018-05-31T21:06:04.795Z,77.87
2018-05-31T21:08:37.171Z,78.10
2018-05-31T21:11:05.298Z,78.21
2018-05-31T21:13:32.854Z,78.42
2018-05-31T21:16:00.448Z,78.01
2018-05-31T21:18:27.973Z,78.03
2018-05-31T21:20:55.580Z,78.40
2018-05-31T21:23:23.615Z,78.67
2018-05-31T21:25:51.133Z,78.67
2018-05-31T21:28:18.659Z,79.06
2018-05-31T21:30:46.450Z,78.86
2018-05-31T21:33:14.212Z,78.90
2018-05-31T21:35:42.058Z,79.33
2018-05-31T21:38:09.632Z,79.31
2018-05-31T21:40:37.122Z,79.32
2018-05-31T21:43:04.755Z,79.68
2018-05-31T21:45:32.354Z,80.27
2018-05-31T21:47:59.883Z,80.60
2018-05-31T21:50:27.380Z,80.94
2018-05-31T21:52:54.929Z,81.12
2018-05-31T21:55:22.451Z,80.28
2018-05-31T21:57:49.947Z,79.93
2018-05-31T22:03:16.587Z,80.76
2018-05-31T22:05:44.135Z,81.37
2018-05-31T22:08:11.620Z,81.35
2018-05-31T22:10:39.097Z,82.40
2018-05-31T22:13:06.623Z,82.90
2018-05-31T22:15:34.133Z,82.91
2018-05-31T22:18:01.641Z,82.55
2018-05-31T22:20:29.157Z,82.57
2018-05-31T22:22:56.656Z,82.81
2018-05-31T22:25:24.165Z,82.83
2018-05-31T22:27:51.709Z,83.15
2018-05-31T22:30:19.222Z,83.01
2018-05-31T22:32:46.761Z,83.21
2018-05-31T22:35:14.491Z,83.71
2018-05-31T22:37:42.022Z,84.35
2018-05-31T22:40:09.527Z,84.15
2018-05-31T22:42:37.019Z,84.31
2018-05-31T22:45:04.519Z,84.25
2018-05-31T22:47:32.012Z,84.00
2018-05-31T22:49:59.535Z,83.83
2018-05-31T22:52:27.054Z,84.24
2018-05-31T22:54:55.499Z,84.16
2018-05-31T22:57:23.022Z,84.18
2018-05-31T22:59:50.529Z,84.51
2018-05-31T23:02:18.057Z,84.35
2018-05-31T23:04:45.565Z,84.19
2018-05-31T23:07:13.071Z,84.06
2018-05-31T23:09:40.648Z,84.63
2018-05-31T23:12:08.152Z,85.23
2018-05-31T23:14:35.677Z,85.40
2018-05-31T23:17:03.218Z,85.41
2018-05-31T23:19:30.719Z,84.93
2018-05-31T23:21:58.225Z,84.71
2018-05-31T23:24:25.799Z,84.63
2018-05-31T23:26:53.309Z,84.52
2018-05-31T23:29:20.852Z,84.74
2018-05-31T23:31:48.375Z,84.94
2018-05-31T23:34:15.874Z,84.97
2018-05-31T23:36:43.429Z,85.44
2018-05-31T23:39:10.965Z,85.50
2018-05-31T23:41:38.519Z,85.44
2018-05-31T23:44:06.046Z,85.15
2018-05-31T23:46:33.585Z,84.92
2018-05-31T23:49:01.151Z,84.95
2018-05-31T23:51:28.673Z,84.82
2018-05-31T23:53:56.166Z,84.49
2018-05-31T23:56:23.706Z,85.37
2018-05-31T23:58:51.228Z,85.67
